Time;durP1;ratioP1;P1;durP2;ratioP2;P2;SDS_P1;SDS_P2;PMS_P1;PMS_P2;Temp;Humidity;BMP_temperature;BMP_pressure;BME280_temperature;BME280_humidity;BME280_pressure;Samples;Min_cycle;Max_cycle;Signal;HPM_P1;HPM_P2
2021/07/19 00:00:23;;;;;;;5.80;2.30;;;24.70;87.70;;;;;;4857260;29;20172;-74
2021/07/19 00:02:49;;;;;;;3.63;2.00;;;24.70;87.90;;;;;;4858619;29;20048;-75
2021/07/19 00:05:16;;;;;;;3.83;1.90;;;24.60;88.30;;;;;;4857165;29;20029;-75
2021/07/19 00:07:43;;;;;;;3.90;2.13;;;24.90;87.30;;;;;;4842817;29;20408;-74
2021/07/19 00:10:11;;;;;;;4.00;2.17;;;24.60;88.60;;;;;;4859418;29;20025;-74
2021/07/19 00:12:37;;;;;;;6.55;2.10;;;24.50;89.20;;;;;;4858965;29;20084;-75
2021/07/19 00:15:10;;;;;;;6.55;1.85;;;24.50;87.70;;;;;;4859311;29;20510;-74
2021/07/19 00:17:35;;;;;;;6.50;2.17;;;24.60;87.60;;;;;;4858720;29;20037;-74
2021/07/19 00:20:02;;;;;;;5.75;2.22;;;24.50;88.30;;;;;;4859671;29;20049;-75
2021/07/19 00:22:28;;;;;;;8.68;2.03;;;24.50;87.90;;;;;;4858848;29;20034;-75
2021/07/19 00:24:54;;;;;;;3.97;2.08;;;24.60;86.30;;;;;;4859486;29;20059;-75
2021/07/19 00:27:19;;;;;;;3.95;2.17;;;24.70;86.40;;;;;;4859623;29;20041;-75
2021/07/19 00:29:45;;;;;;;3.85;2.05;;;25.00;85.60;;;;;;4859505;29;20053;-74
2021/07/19 00:32:11;;;;;;;6.32;2.92;;;24.90;86.30;;;;;;4859016;29;20040;-75
2021/07/19 00:34:37;;;;;;;6.03;2.30;;;24.60;87.50;;;;;;4859101;29;20128;-75
2021/07/19 00:37:04;;;;;;;4.47;2.42;;;24.50;88.00;;;;;;4859274;29;20109;-75
2021/07/19 00:39:30;;;;;;;5.20;2.67;;;24.50;86.80;;;;;;4858753;29;20048;-75
2021/07/19 00:41:56;;;;;;;5.47;2.13;;;25.00;85.20;;;;;;4858669;29;20034;-74
2021/07/19 00:44:22;;;;;;;4.53;2.17;;;24.90;86.20;;;;;;4859374;29;20049;-74
2021/07/19 00:46:53;;;;;;;4.35;2.53;;;24.60;87.10;;;;;;4859214;29;20038;-75
2021/07/19 00:49:21;;;;;;;5.20;2.55;;;24.60;86.00;;;;;;4858658;29;20054;-75
2021/07/19 00:51:47;;;;;;;4.00;2.22;;;25.00;84.40;;;;;;4859641;29;20068;-75
2021/07/19 00:54:17;;;;;;;4.63;2.28;;;25.00;84.90;;;;;;4863012;29;20464;-75
2021/07/19 00:56:44;;;;;;;5.35;2.33;;;24.70;87.00;;;;;;4862794;29;20127;-75
2021/07/19 00:59:13;;;;;;;4.80;2.28;;;24.60;86.10;;;;;;4862267;29;20544;-75
2021/07/19 01:01:42;;;;;;;5.90;2.60;;;24.80;84.90;;;;;;4849254;29;20060;-75
2021/07/19 01:04:09;;;;;;;6.63;2.70;;;24.70;85.90;;;;;;4861358;29;20697;-75
2021/07/19 01:06:35;;;;;;;4.85;2.78;;;24.40;87.40;;;;;;4860393;29;20093;-74
2021/07/19 01:09:05;;;;;;;6.70;2.78;;;24.40;86.50;;;;;;4860538;29;20045;-74
2021/07/19 01:11:32;;;;;;;6.30;3.05;;;24.50;85.50;;;;;;4860050;29;20497;-75
2021/07/19 01:13:58;;;;;;;4.38;2.40;;;24.60;86.20;;;;;;4859900;29;20049;-75
2021/07/19 01:16:24;;;;;;;4.80;2.85;;;24.30;86.80;;;;;;4860201;29;20042;-75
2021/07/19 01:18:50;;;;;;;5.65;2.20;;;24.60;84.20;;;;;;4860720;29;20033;-75
2021/07/19 01:21:43;;;;;;;5.22;2.40;;;24.80;84.20;;;;;;4861953;29;20400;-75
2021/07/19 01:24:24;;;;;;;5.55;2.50;;;24.60;86.00;;;;;;4862179;29;20046;-75
2021/07/19 01:27:04;;;;;;;5.32;2.65;;;24.20;88.10;;;;;;4862214;29;20030;-74
2021/07/19 01:29:33;;;;;;;6.70;2.60;;;24.00;88.60;;;;;;4861913;29;20524;-75
2021/07/19 01:31:59;;;;;;;4.30;2.50;;;24.30;85.60;;;;;;4862152;29;20041;-75
2021/07/19 01:34:29;;;;;;;8.18;2.78;;;24.30;86.70;;;;;;4861696;29;20051;-75
2021/07/19 01:36:57;;;;;;;6.70;2.60;;;24.40;85.80;;;;;;4845472;29;20041;-75
2021/07/19 01:39:37;;;;;;;4.38;2.50;;;24.50;85.00;;;;;;4861659;29;20094;-75
2021/07/19 01:42:04;;;;;;;8.50;2.92;;;24.30;87.40;;;;;;4845587;29;20042;-75
2021/07/19 01:44:31;;;;;;;5.90;2.75;;;24.30;85.10;;;;;;4861822;29;20041;-75
2021/07/19 01:47:08;;;;;;;;;;;;;;;;;;;;;
2021/07/19 01:49:35;;;;;;;6.45;2.83;;;24.60;84.80;;;;;;4860617;29;20050;-75
2021/07/19 01:52:01;;;;;;;9.68;2.83;;;24.50;84.60;;;;;;4861731;29;20050;-75
2021/07/19 01:54:28;;;;;;;8.32;2.85;;;24.60;84.20;;;;;;4861037;29;20045;-75
2021/07/19 01:56:54;;;;;;;7.05;2.90;;;24.60;84.60;;;;;;4861961;29;20048;-75
2021/07/19 01:59:20;;;;;;;6.65;2.35;;;24.60;84.10;;;;;;4861551;29;20041;-75
2021/07/19 02:01:47;;;;;;;6.95;2.75;;;24.70;83.20;;;;;;4859250;29;20056;-75
2021/07/19 02:04:12;;;;;;;7.70;3.38;;;24.60;84.10;;;;;;4859732;29;20120;-75
2021/07/19 02:06:42;;;;;;;9.13;3.20;;;24.50;84.00;;;;;;4859874;29;20040;-75
2021/07/19 02:09:10;;;;;;;8.80;3.63;;;24.30;85.00;;;;;;4852493;29;20042;-75
2021/07/19 02:11:36;;;;;;;7.10;2.92;;;24.40;83.60;;;;;;4858622;29;20053;-74
2021/07/19 02:14:08;;;;;;;7.90;3.47;;;24.40;83.70;;;;;;4857498;29;20049;-75
2021/07/19 02:16:39;;;;;;;8.02;3.28;;;24.40;83.60;;;;;;4842661;29;20057;-74
2021/07/19 02:19:09;;;;;;;7.13;2.58;;;24.20;84.70;;;;;;4848159;29;20041;-75
2021/07/19 02:21:35;;;;;;;7.28;3.10;;;24.00;84.80;;;;;;4859273;29;20041;-75
2021/07/19 02:24:03;;;;;;;7.68;2.80;;;24.20;82.90;;;;;;4859932;29;20481;-74
2021/07/19 02:26:29;;;;;;;8.18;2.78;;;24.40;82.50;;;;;;4860882;29;20093;-75
2021/07/19 02:28:56;;;;;;;8.02;3.42;;;24.40;81.80;;;;;;4858849;29;20093;-75
2021/07/19 02:31:22;;;;;;;6.35;3.22;;;24.50;83.10;;;;;;4860382;29;20079;-74
2021/07/19 02:33:50;;;;;;;7.32;3.10;;;24.60;81.20;;;;;;4860496;29;20049;-74
2021/07/19 02:36:17;;;;;;;9.23;3.13;;;24.70;80.70;;;;;;4861298;29;20396;-75
2021/07/19 02:38:49;;;;;;;10.43;3.47;;;24.80;80.10;;;;;;4860713;29;20076;-75
2021/07/19 02:41:17;;;;;;;9.35;3.25;;;24.80;80.00;;;;;;4860773;29;20041;-75
2021/07/19 02:43:56;;;;;;;10.13;4.03;;;24.80;80.50;;;;;;4860061;29;20041;-75
2021/07/19 02:46:28;;;;;;;9.27;3.00;;;24.90;79.80;;;;;;4860564;29;20519;-75
2021/07/19 02:48:58;;;;;;;7.03;3.42;;;24.80;80.50;;;;;;4852985;29;20054;-75
2021/07/19 02:51:26;;;;;;;10.73;3.05;;;24.60;80.80;;;;;;4843992;29;20497;-75
2021/07/19 02:53:53;;;;;;;8.88;3.40;;;24.60;80.70;;;;;;4846150;29;20048;-75
2021/07/19 02:56:23;;;;;;;10.60;3.22;;;24.70;81.20;;;;;;4842471;29;20107;-74
2021/07/19 02:58:49;;;;;;;12.43;3.83;;;24.60;81.00;;;;;;4842277;29;20535;-75
2021/07/19 03:01:19;;;;;;;9.48;3.17;;;24.40;82.90;;;;;;4858887;29;20495;-75
2021/07/19 03:03:46;;;;;;;9.68;4.07;;;24.60;80.70;;;;;;4847230;29;20049;-75
2021/07/19 03:06:18;;;;;;;10.48;2.95;;;24.60;81.60;;;;;;4841070;29;20392;-75
2021/07/19 03:08:48;;;;;;;9.07;3.42;;;24.30;82.30;;;;;;4853295;29;20082;-75
2021/07/19 03:11:21;;;;;;;8.38;3.50;;;24.30;82.00;;;;;;4840816;29;20697;-75
2021/07/19 03:14:08;;;;;;;8.95;2.92;;;24.00;84.00;;;;;;4852814;29;20093;-75
2021/07/19 03:16:36;;;;;;;12.10;3.15;;;23.80;84.70;;;;;;4840902;29;20049;-75
2021/07/19 03:19:05;;;;;;;6.25;2.85;;;23.60;85.50;;;;;;4841456;29;20045;-75
2021/07/19 03:21:33;;;;;;;6.15;3.17;;;23.50;85.40;;;;;;4839459;29;20053;-76
2021/07/19 03:24:01;;;;;;;9.80;3.38;;;23.30;86.80;;;;;;4841156;29;20078;-75
2021/07/19 03:26:29;;;;;;;5.78;3.28;;;23.30;85.80;;;;;;4833167;29;20053;-75
2021/07/19 03:28:57;;;;;;;8.18;2.78;;;23.30;85.10;;;;;;4839155;29;20045;-75
2021/07/19 03:31:24;;;;;;;11.57;3.50;;;23.60;84.90;;;;;;4843810;29;20033;-75
2021/07/19 03:33:50;;;;;;;7.05;3.08;;;23.50;86.20;;;;;;4838991;29;20065;-76
2021/07/19 03:36:17;;;;;;;11.25;3.03;;;23.70;84.50;;;;;;4834555;29;20161;-75
2021/07/19 03:38:44;;;;;;;10.25;3.65;;;23.70;84.70;;;;;;4838707;29;20124;-75
2021/07/19 03:41:13;;;;;;;12.18;3.47;;;23.60;85.90;;;;;;4849027;29;20586;-75
2021/07/19 03:43:40;;;;;;;5.45;2.65;;;23.40;85.80;;;;;;4838945;29;20034;-74
2021/07/19 03:46:06;;;;;;;7.75;3.65;;;23.40;85.60;;;;;;4834413;29;20045;-75
2021/07/19 03:48:32;;;;;;;10.57;2.97;;;23.40;85.30;;;;;;4839593;29;20077;-75
2021/07/19 03:50:59;;;;;;;6.05;2.80;;;23.50;85.10;;;;;;4852292;29;20481;-75
2021/07/19 03:53:26;;;;;;;7.78;3.15;;;23.50;84.90;;;;;;4851620;29;20037;-75
2021/07/19 03:55:53;;;;;;;9.27;3.53;;;23.50;85.00;;;;;;4852982;29;20065;-75
2021/07/19 03:58:24;;;;;;;8.63;3.40;;;23.50;84.90;;;;;;4852620;29;20038;-75
2021/07/19 04:00:52;;;;;;;9.02;3.30;;;23.30;85.80;;;;;;4851474;29;20061;-75
2021/07/19 04:03:30;;;;;;;5.63;2.85;;;23.10;86.60;;;;;;4851847;29;20128;-75
2021/07/19 04:05:59;;;;;;;9.60;3.35;;;23.10;86.60;;;;;;4843784;29;20094;-75
2021/07/19 04:08:31;;;;;;;6.88;3.20;;;22.90;87.40;;;;;;4851418;29;20025;-75
2021/07/19 04:10:58;;;;;;;7.07;3.03;;;22.80;87.30;;;;;;4852092;29;20042;-75
2021/07/19 04:13:25;;;;;;;11.43;3.05;;;22.90;86.80;;;;;;4851744;29;20052;-75
2021/07/19 04:15:52;;;;;;;6.93;2.97;;;22.90;87.20;;;;;;4847491;29;20076;-75
2021/07/19 04:18:21;;;;;;;7.97;3.35;;;22.80;86.70;;;;;;4842855;29;20038;-74
2021/07/19 04:20:49;;;;;;;9.15;3.45;;;22.80;87.80;;;;;;4850313;29;20048;-75
2021/07/19 04:23:15;;;;;;;9.75;4.05;;;22.90;87.00;;;;;;4832146;29;20125;-75
2021/07/19 04:25:42;;;;;;;9.15;3.65;;;22.70;88.50;;;;;;4834279;29;20547;-75
2021/07/19 04:28:08;;;;;;;9.77;3.33;;;22.60;88.40;;;;;;4855550;29;20058;-75
2021/07/19 04:30:35;;;;;;;10.10;3.28;;;22.60;87.90;;;;;;4856754;29;20041;-75
2021/07/19 04:33:02;;;;;;;13.73;3.38;;;22.50;87.70;;;;;;4856765;29;20049;-75
2021/07/19 04:35:28;;;;;;;8.70;3.85;;;22.70;87.60;;;;;;4857406;29;20037;-75
2021/07/19 04:37:55;;;;;;;11.57;3.53;;;22.40;90.40;;;;;;4857219;29;20072;-75
2021/07/19 04:40:21;;;;;;;9.73;3.28;;;22.40;88.40;;;;;;4858343;29;20478;-75
2021/07/19 04:42:55;;;;;;;10.48;3.70;;;22.30;89.00;;;;;;4857709;29;20042;-75
2021/07/19 04:45:21;;;;;;;6.57;3.10;;;22.20;90.50;;;;;;4858313;29;20059;-75
2021/07/19 04:47:47;;;;;;;5.80;2.95;;;22.10;90.10;;;;;;4856522;29;20554;-75
2021/07/19 04:50:17;;;;;;;8.70;3.80;;;22.20;88.60;;;;;;4858313;29;20057;-74
2021/07/19 04:52:46;;;;;;;5.68;3.53;;;22.60;87.20;;;;;;4857450;29;20128;-75
2021/07/19 04:55:19;;;;;;;7.43;3.40;;;22.10;90.10;;;;;;4858312;29;20044;-75
2021/07/19 04:57:50;;;;;;;14.10;3.40;;;21.90;91.00;;;;;;4857138;29;20072;-75
2021/07/19 05:00:16;;;;;;;6.20;3.42;;;22.10;89.80;;;;;;4839566;29;20130;-74
2021/07/19 05:02:44;;;;;;;7.28;3.85;;;22.00;89.90;;;;;;4853017;29;20625;-75
2021/07/19 05:05:16;;;;;;;7.53;3.55;;;22.00;89.80;;;;;;4858087;29;20120;-75
2021/07/19 05:07:44;;;;;;;11.98;3.60;;;22.10;89.70;;;;;;4856422;29;20041;-75
2021/07/19 05:10:12;;;;;;;7.68;3.90;;;22.10;90.00;;;;;;4857963;29;20522;-75
2021/07/19 05:12:43;;;;;;;7.35;3.35;;;22.30;88.40;;;;;;4857282;29;20030;-75
2021/07/19 05:15:13;;;;;;;9.75;3.30;;;22.20;90.00;;;;;;4857464;29;20041;-75
2021/07/19 05:17:40;;;;;;;8.25;3.53;;;22.10;90.00;;;;;;4856398;29;20044;-75
2021/07/19 05:20:13;;;;;;;11.65;3.55;;;21.70;91.40;;;;;;4841729;29;20057;-75
2021/07/19 05:22:48;;;;;;;11.13;4.10;;;21.70;90.60;;;;;;4852530;29;20556;-75
2021/07/19 05:25:25;;;;;;;7.30;3.75;;;21.70;91.30;;;;;;4839418;29;20057;-75
2021/07/19 05:28:12;;;;;;;7.03;3.75;;;21.40;92.40;;;;;;4855002;29;20037;-75
2021/07/19 05:30:45;;;;;;;8.00;3.70;;;21.40;91.40;;;;;;4858447;29;20033;-77
2021/07/19 05:33:13;;;;;;;8.85;3.88;;;21.40;91.80;;;;;;4859081;29;20097;-76
2021/07/19 05:35:39;;;;;;;8.05;4.03;;;21.60;90.30;;;;;;4860384;29;20066;-74
2021/07/19 05:38:05;;;;;;;8.52;4.25;;;22.00;90.60;;;;;;4861695;29;20065;-74
2021/07/19 05:40:31;;;;;;;10.05;3.65;;;21.70;90.90;;;;;;4853144;29;20048;-72
2021/07/19 05:43:01;;;;;;;9.73;4.07;;;21.80;91.60;;;;;;4854268;29;20053;-73
2021/07/19 05:45:28;;;;;;;8.88;3.70;;;21.70;92.50;;;;;;4853098;29;20061;-75
2021/07/19 05:47:54;;;;;;;9.05;3.63;;;21.60;91.60;;;;;;4852023;29;20053;-75
2021/07/19 05:50:21;;;;;;;9.38;3.80;;;21.50;91.80;;;;;;4865520;29;20123;-75
2021/07/19 05:52:47;;;;;;;8.60;3.45;;;21.70;92.30;;;;;;4871831;29;20123;-75
2021/07/19 05:55:16;;;;;;;8.43;3.75;;;21.70;90.90;;;;;;4872402;29;20045;-75
2021/07/19 05:57:41;;;;;;;11.13;4.43;;;21.80;91.10;;;;;;4860499;29;20045;-75
2021/07/19 06:00:11;;;;;;;7.88;3.83;;;21.80;91.30;;;;;;4854033;29;20046;-75
2021/07/19 06:02:37;;;;;;;20.25;3.72;;;21.80;91.60;;;;;;4853618;29;20037;-75
2021/07/19 06:05:04;;;;;;;9.27;4.43;;;22.00;90.80;;;;;;4853665;29;20531;-75
2021/07/19 06:07:30;;;;;;;7.03;3.40;;;22.10;90.80;;;;;;4853370;29;20052;-75
2021/07/19 06:09:56;;;;;;;7.13;4.32;;;22.20;90.70;;;;;;4853757;29;20509;-75
2021/07/19 06:12:22;;;;;;;7.85;4.03;;;22.10;91.00;;;;;;4853665;29;20130;-75
2021/07/19 06:14:47;;;;;;;7.78;3.75;;;22.20;90.50;;;;;;4853448;29;20100;-75
2021/07/19 06:17:13;;;;;;;9.13;3.78;;;22.00;92.10;;;;;;4853643;29;20147;-75
2021/07/19 06:19:43;;;;;;;7.53;4.85;;;22.00;92.00;;;;;;4845027;29;20048;-75
2021/07/19 06:22:10;;;;;;;9.30;4.15;;;22.10;91.00;;;;;;4834692;29;20533;-75
2021/07/19 06:24:40;;;;;;;7.85;4.05;;;22.20;91.50;;;;;;4833572;29;20466;-75
2021/07/19 06:27:06;;;;;;;12.75;3.75;;;22.10;91.30;;;;;;4833505;29;20046;-75
2021/07/19 06:29:33;;;;;;;10.65;4.03;;;22.40;90.70;;;;;;4849391;29;20046;-75
2021/07/19 06:32:00;;;;;;;8.00;4.00;;;22.40;90.80;;;;;;4851522;29;20122;-75
2021/07/19 06:34:27;;;;;;;7.85;4.20;;;22.50;91.30;;;;;;4852085;29;20144;-75
2021/07/19 06:36:53;;;;;;;10.02;4.07;;;22.70;89.60;;;;;;4851980;29;20124;-75
2021/07/19 06:39:19;;;;;;;13.45;4.80;;;22.80;89.30;;;;;;4852771;29;20199;-75
2021/07/19 06:41:45;;;;;;;8.18;4.70;;;22.90;89.70;;;;;;4852551;29;20653;-75
2021/07/19 06:44:11;;;;;;;8.52;4.30;;;23.00;88.70;;;;;;4853702;29;20049;-75
2021/07/19 06:46:37;;;;;;;11.90;5.07;;;22.90;88.20;;;;;;4853402;29;20049;-75
2021/07/19 06:49:03;;;;;;;8.73;4.03;;;22.90;89.50;;;;;;4852562;29;20064;-75
2021/07/19 06:51:29;;;;;;;6.97;3.70;;;22.80;90.00;;;;;;4853145;29;20053;-75
2021/07/19 06:53:55;;;;;;;9.95;3.90;;;23.10;89.60;;;;;;4836289;29;20060;-75
2021/07/19 06:56:20;;;;;;;9.65;4.32;;;23.30;87.90;;;;;;4853469;29;20045;-75
2021/07/19 06:58:46;;;;;;;10.52;4.50;;;23.40;87.20;;;;;;4853295;29;20588;-75
2021/07/19 07:01:12;;;;;;;10.77;4.47;;;23.40;90.10;;;;;;4853539;29;20404;-75
2021/07/19 07:03:37;;;;;;;10.30;4.47;;;23.60;86.10;;;;;;4852936;29;20976;-74
2021/07/19 07:06:03;;;;;;;10.77;4.03;;;23.90;86.10;;;;;;4853656;29;20101;-75
2021/07/19 07:08:29;;;;;;;9.07;4.38;;;24.10;86.40;;;;;;4853266;29;20044;-75
2021/07/19 07:10:54;;;;;;;12.13;4.65;;;24.30;88.10;;;;;;4836554;29;20037;-75
2021/07/19 07:13:20;;;;;;;10.73;5.25;;;24.50;88.90;;;;;;4852793;29;20152;-75
2021/07/19 07:15:46;;;;;;;9.05;4.75;;;24.80;88.90;;;;;;4853126;29;20116;-75
2021/07/19 07:18:12;;;;;;;10.65;4.63;;;25.00;90.90;;;;;;4852822;29;20668;-75
2021/07/19 07:20:38;;;;;;;11.00;5.18;;;25.10;85.10;;;;;;4850955;29;20057;-76
2021/07/19 07:23:07;;;;;;;13.82;5.72;;;25.30;88.40;;;;;;4851260;29;20037;-75
2021/07/19 07:25:33;;;;;;;10.93;4.28;;;25.40;89.70;;;;;;4832867;29;20038;-75
2021/07/19 07:28:00;;;;;;;9.65;4.40;;;25.40;90.20;;;;;;4833129;29;20613;-75
2021/07/19 07:30:25;;;;;;;16.27;4.88;;;25.50;88.40;;;;;;4842172;29;20624;-75
2021/07/19 07:32:54;;;;;;;15.85;5.38;;;26.00;89.10;;;;;;4852340;29;20086;-75
2021/07/19 07:35:20;;;;;;;10.23;4.35;;;26.70;87.70;;;;;;4852057;29;20042;-75
2021/07/19 07:37:47;;;;;;;8.73;4.25;;;27.60;82.30;;;;;;4834505;29;20539;-75
2021/07/19 07:40:16;;;;;;;9.95;4.75;;;28.60;81.40;;;;;;4851884;29;20073;-75
2021/07/19 07:42:42;;;;;;;9.43;4.68;;;29.40;82.20;;;;;;4851816;29;20042;-75
2021/07/19 07:45:09;;;;;;;12.73;4.85;;;30.20;78.70;;;;;;4852115;29;20049;-75
2021/07/19 07:47:35;;;;;;;10.68;5.38;;;29.80;78.60;;;;;;4851984;29;20559;-75
2021/07/19 07:50:00;;;;;;;10.98;5.25;;;30.40;79.00;;;;;;4852655;29;20060;-75
2021/07/19 07:52:26;;;;;;;8.02;4.78;;;30.30;77.80;;;;;;4853006;29;20034;-75
2021/07/19 07:54:52;;;;;;;9.60;5.15;;;30.10;76.70;;;;;;4852528;29;20045;-75
2021/07/19 07:57:20;;;;;;;11.45;5.28;;;30.10;79.50;;;;;;4852554;29;20044;-75
2021/07/19 07:59:45;;;;;;;13.13;5.15;;;30.60;78.80;;;;;;4852048;29;20077;-75
2021/07/19 08:02:11;;;;;;;11.07;5.07;;;30.70;81.40;;;;;;4851970;29;20072;-75
2021/07/19 08:04:37;;;;;;;18.92;5.10;;;30.30;77.90;;;;;;4852448;29;20045;-75
2021/07/19 08:07:04;;;;;;;10.07;4.63;;;29.80;80.40;;;;;;4852290;29;20037;-75
2021/07/19 08:09:30;;;;;;;11.98;5.30;;;29.40;79.80;;;;;;4851900;29;20053;-75
2021/07/19 08:11:56;;;;;;;10.50;5.07;;;29.50;80.40;;;;;;4852311;29;20069;-75
2021/07/19 08:14:23;;;;;;;13.77;6.10;;;29.00;82.90;;;;;;4852235;29;20037;-75
2021/07/19 08:16:49;;;;;;;14.85;5.85;;;28.80;81.10;;;;;;4852439;29;20042;-75
2021/07/19 08:19:18;;;;;;;11.85;5.38;;;28.90;79.90;;;;;;4851651;29;20483;-75
2021/07/19 08:21:46;;;;;;;10.88;5.18;;;28.50;80.40;;;;;;4849864;29;20045;-75
2021/07/19 08:24:12;;;;;;;11.93;5.28;;;28.40;80.90;;;;;;4850932;29;20454;-75
2021/07/19 08:26:38;;;;;;;15.43;5.75;;;28.50;80.80;;;;;;4850349;29;20109;-75
2021/07/19 08:29:04;;;;;;;17.23;5.13;;;28.20;80.20;;;;;;4849819;29;20622;-75
2021/07/19 08:31:32;;;;;;;13.95;5.45;;;28.20;83.30;;;;;;4850178;29;20041;-75
2021/07/19 08:33:57;;;;;;;9.80;4.93;;;28.30;83.40;;;;;;4849476;29;20109;-75
2021/07/19 08:36:23;;;;;;;12.88;5.32;;;28.30;84.60;;;;;;4850733;29;20038;-75
2021/07/19 08:38:50;;;;;;;9.68;5.20;;;28.40;83.00;;;;;;4850319;29;20044;-75
2021/07/19 08:41:17;;;;;;;16.77;6.30;;;28.40;82.40;;;;;;4835195;29;20427;-75
2021/07/19 08:43:44;;;;;;;11.15;5.63;;;28.00;81.70;;;;;;4851063;29;20042;-75
2021/07/19 08:46:11;;;;;;;12.65;5.30;;;27.90;80.50;;;;;;4851092;29;20041;-75
2021/07/19 08:48:39;;;;;;;12.32;5.70;;;27.50;79.00;;;;;;4850739;29;20064;-75
2021/07/19 08:51:06;;;;;;;11.15;5.28;;;27.90;85.00;;;;;;4850996;29;20061;-75
2021/07/19 08:53:34;;;;;;;17.30;5.32;;;28.00;78.80;;;;;;4851402;29;20038;-75
2021/07/19 08:56:00;;;;;;;9.57;4.43;;;27.80;80.40;;;;;;4852060;29;20033;-75
2021/07/19 08:58:27;;;;;;;10.82;5.70;;;28.00;83.80;;;;;;4851950;29;20094;-75
2021/07/19 09:00:58;;;;;;;11.35;5.22;;;27.90;82.60;;;;;;4852033;29;20046;-74
2021/07/19 09:03:24;;;;;;;15.68;6.22;;;28.00;83.20;;;;;;4851789;29;20489;-75
2021/07/19 09:05:51;;;;;;;11.90;5.53;;;28.40;82.80;;;;;;4851599;29;20041;-75
2021/07/19 09:08:16;;;;;;;10.02;5.32;;;28.30;80.90;;;;;;4851674;29;20045;-74
2021/07/19 09:10:42;;;;;;;18.10;5.88;;;28.30;79.90;;;;;;4851792;29;20629;-75
2021/07/19 09:13:17;;;;;;;15.73;5.38;;;28.20;81.00;;;;;;4834704;29;20614;-75
2021/07/19 09:15:43;;;;;;;12.95;5.95;;;27.90;79.90;;;;;;4858656;29;20041;-75
2021/07/19 09:18:09;;;;;;;16.90;7.07;;;28.00;82.20;;;;;;4866225;29;20044;-75
2021/07/19 09:20:42;;;;;;;14.20;5.82;;;28.10;79.50;;;;;;4838166;29;20045;-75
2021/07/19 09:23:10;;;;;;;13.98;5.45;;;28.50;79.70;;;;;;4852950;29;20040;-75
2021/07/19 09:25:37;;;;;;;11.93;5.70;;;28.70;80.30;;;;;;4854623;29;20182;-75
2021/07/19 09:28:18;;;;;;;14.60;5.20;;;28.20;79.30;;;;;;4853231;29;20044;-75
2021/07/19 09:30:44;;;;;;;16.92;5.72;;;28.20;80.60;;;;;;4853315;29;20037;-75
2021/07/19 09:33:13;;;;;;;16.98;5.95;;;28.50;81.50;;;;;;4853292;29;20137;-75
2021/07/19 09:35:42;;;;;;;15.75;5.53;;;28.40;80.20;;;;;;4853178;29;21039;-75
2021/07/19 09:38:11;;;;;;;12.40;5.22;;;28.50;77.80;;;;;;4853642;29;20069;-75
2021/07/19 09:40:41;;;;;;;12.68;5.53;;;29.00;80.90;;;;;;4853085;29;20402;-75
2021/07/19 09:43:23;;;;;;;13.93;5.88;;;29.20;81.20;;;;;;4854886;29;20034;-75
2021/07/19 09:46:09;;;;;;;11.82;4.93;;;29.30;79.90;;;;;;4854596;29;20085;-75
2021/07/19 09:48:36;;;;;;;14.23;5.82;;;29.10;79.70;;;;;;4853847;29;20109;-75
2021/07/19 09:51:02;;;;;;;14.85;6.05;;;28.80;80.60;;;;;;4854844;29;20489;-75
2021/07/19 09:53:38;;;;;;;11.43;5.40;;;28.90;79.00;;;;;;4872440;29;20052;-75
2021/07/19 09:56:13;;;;;;;13.63;6.90;;;29.30;79.50;;;;;;4873537;29;20033;-75
2021/07/19 09:58:52;;;;;;;9.43;5.18;;;29.60;79.30;;;;;;4873207;29;20697;-75
2021/07/19 10:01:33;;;;;;;12.38;5.43;;;29.50;79.10;;;;;;4837541;29;20124;-75
2021/07/19 10:04:03;;;;;;;12.48;5.75;;;29.70;80.10;;;;;;4854409;29;20029;-75
2021/07/19 10:06:30;;;;;;;15.70;6.53;;;29.90;80.20;;;;;;4854494;29;20554;-75
2021/07/19 10:09:00;;;;;;;14.82;5.00;;;30.10;80.80;;;;;;4854576;29;20053;-75
2021/07/19 10:11:32;;;;;;;10.82;5.03;;;30.20;81.10;;;;;;4853925;29;20037;-75
2021/07/19 10:13:57;;;;;;;14.40;5.45;;;30.20;76.50;;;;;;4854279;29;20045;-75
2021/07/19 10:16:27;;;;;;;18.73;6.13;;;30.10;77.30;;;;;;4854148;29;20044;-75
2021/07/19 10:18:55;;;;;;;10.93;4.88;;;30.20;78.90;;;;;;4854139;29;20035;-75
2021/07/19 10:21:29;;;;;;;14.52;5.82;;;30.30;82.30;;;;;;4854047;29;20030;-75
2021/07/19 10:24:06;;;;;;;18.00;5.78;;;30.30;78.80;;;;;;4844484;29;20362;-75
2021/07/19 10:26:33;;;;;;;13.68;6.18;;;30.20;80.40;;;;;;4834597;29;20322;-75
2021/07/19 10:28:59;;;;;;;16.27;5.55;;;30.10;77.80;;;;;;4834143;29;20046;-75
2021/07/19 10:31:26;;;;;;;23.08;6.75;;;30.20;78.50;;;;;;4844081;29;20137;-75
2021/07/19 10:33:55;;;;;;;19.05;6.65;;;30.00;78.20;;;;;;4852418;29;20049;-75
2021/07/19 10:36:31;;;;;;;14.10;5.15;;;30.10;80.40;;;;;;4852245;29;20041;-75
2021/07/19 10:39:04;;;;;;;19.63;6.65;;;30.20;78.30;;;;;;4852303;29;20056;-75
2021/07/19 10:41:30;;;;;;;12.95;5.60;;;30.10;75.70;;;;;;4844216;29;20513;-75
2021/07/19 10:44:08;;;;;;;15.50;8.02;;;30.00;74.90;;;;;;4835299;29;20057;-75
2021/07/19 10:46:34;;;;;;;14.00;5.78;;;30.20;78.40;;;;;;4835972;29;20104;-75
2021/07/19 10:49:12;;;;;;;15.80;6.22;;;30.40;79.60;;;;;;4846140;29;20053;-75
2021/07/19 10:51:48;;;;;;;14.77;5.90;;;30.40;80.00;;;;;;4871833;29;20040;-75
2021/07/19 10:54:20;;;;;;;12.63;5.70;;;29.90;75.50;;;;;;4872213;29;20060;-75
2021/07/19 10:56:46;;;;;;;15.93;6.28;;;29.70;74.60;;;;;;4861694;29;20128;-75
2021/07/19 10:59:27;;;;;;;14.18;4.95;;;30.10;75.20;;;;;;4853646;29;20042;-75
2021/07/19 11:01:55;;;;;;;11.88;6.25;;;30.60;76.10;;;;;;4852974;29;20061;-75
2021/07/19 11:04:22;;;;;;;17.35;6.70;;;30.50;74.50;;;;;;4853246;29;20037;-75
2021/07/19 11:06:49;;;;;;;13.80;5.60;;;30.90;77.70;;;;;;4853492;29;20038;-75
2021/07/19 11:09:19;;;;;;;15.95;4.70;;;31.10;75.60;;;;;;4853151;29;20038;-75
2021/07/19 11:11:45;;;;;;;13.02;5.35;;;31.10;76.70;;;;;;4852802;29;20517;-75
2021/07/19 11:14:20;;;;;;;12.55;5.03;;;30.90;74.00;;;;;;4852986;29;20081;-75
2021/07/19 11:16:53;;;;;;;16.85;6.90;;;30.60;72.80;;;;;;4853208;29;20029;-75
2021/07/19 11:19:36;;;;;;;13.73;5.85;;;30.70;75.70;;;;;;4852997;29;20034;-75
2021/07/19 11:22:23;;;;;;;18.58;6.80;;;30.90;76.10;;;;;;4834956;29;20133;-75
2021/07/19 11:24:54;;;;;;;14.23;5.93;;;30.90;72.50;;;;;;4837421;29;20129;-75
2021/07/19 11:27:33;;;;;;;13.85;6.15;;;31.10;76.80;;;;;;4834056;29;20382;-75
2021/07/19 11:30:10;;;;;;;12.18;5.68;;;30.90;74.30;;;;;;4834104;29;20034;-75
2021/07/19 11:32:40;;;;;;;16.23;5.72;;;31.00;76.60;;;;;;4852975;29;20045;-75
2021/07/19 11:35:11;;;;;;;20.45;6.15;;;30.90;72.40;;;;;;4853076;29;20042;-75
2021/07/19 11:37:40;;;;;;;12.55;5.25;;;30.90;73.90;;;;;;4852439;29;20041;-75
2021/07/19 11:40:07;;;;;;;15.60;6.05;;;31.20;75.10;;;;;;4852836;29;20040;-75
2021/07/19 11:42:44;;;;;;;13.85;6.00;;;31.60;75.80;;;;;;4852142;29;20069;-75
2021/07/19 11:45:15;;;;;;;17.95;6.00;;;31.60;73.60;;;;;;4851955;29;20049;-75
2021/07/19 11:47:51;;;;;;;12.52;5.35;;;31.80;75.00;;;;;;4852392;29;20037;-75
2021/07/19 11:50:19;;;;;;;16.35;5.57;;;32.00;73.80;;;;;;4834447;29;20146;-75
2021/07/19 11:52:46;;;;;;;21.83;6.63;;;32.00;73.90;;;;;;4833481;29;20038;-73
2021/07/19 11:55:16;;;;;;;12.38;5.60;;;32.10;74.20;;;;;;4834168;29;20057;-74
2021/07/19 11:57:54;;;;;;;18.90;6.15;;;32.00;73.80;;;;;;4833858;29;20091;-73
2021/07/19 12:00:37;;;;;;;23.67;7.68;;;32.00;73.50;;;;;;4834218;29;20049;-74
2021/07/19 12:03:03;;;;;;;14.98;5.90;;;31.90;73.50;;;;;;4833826;29;20489;-78
2021/07/19 12:05:30;;;;;;;22.23;6.00;;;31.80;74.80;;;;;;4842477;29;20099;-76
2021/07/19 12:08:07;;;;;;;31.98;7.13;;;31.50;69.80;;;;;;4841670;29;20114;-74
2021/07/19 12:10:35;;;;;;;18.02;6.00;;;31.60;75.00;;;;;;4833697;29;20026;-74
2021/07/19 12:13:12;;;;;;;16.67;5.95;;;31.70;72.60;;;;;;4832797;29;20042;-75
2021/07/19 12:15:50;;;;;;;17.85;6.28;;;32.00;74.60;;;;;;4832737;29;20038;-75
2021/07/19 12:18:26;;;;;;;18.63;5.68;;;31.70;73.40;;;;;;4832851;29;20568;-75
2021/07/19 12:21:10;;;;;;;14.15;5.15;;;31.70;69.80;;;;;;4833230;29;20057;-74
2021/07/19 12:23:56;;;;;;;16.92;6.45;;;31.70;73.30;;;;;;4833019;29;20042;-75
2021/07/19 12:26:43;;;;;;;18.13;6.03;;;31.60;68.10;;;;;;4830822;29;20038;-75
2021/07/19 12:29:15;;;;;;;19.52;5.55;;;31.70;71.60;;;;;;4832027;29;20034;-75
2021/07/19 12:31:51;;;;;;;14.38;5.05;;;31.90;70.40;;;;;;4831042;29;20050;-75
2021/07/19 12:34:41;;;;;;;13.90;5.32;;;32.10;71.40;;;;;;4831484;29;20054;-75
2021/07/19 12:37:14;;;;;;;16.10;5.53;;;32.10;68.90;;;;;;4824401;29;20118;-75
2021/07/19 12:39:51;;;;;;;16.17;4.50;;;32.30;72.50;;;;;;4831548;29;20040;-75
2021/07/19 12:42:23;;;;;;;15.38;5.78;;;32.20;70.10;;;;;;4831231;29;20125;-75
2021/07/19 12:44:51;;;;;;;13.57;4.95;;;32.50;72.50;;;;;;4832983;29;20038;-75
2021/07/19 12:47:18;;;;;;;16.63;5.38;;;32.50;72.80;;;;;;4833582;29;20152;-75
2021/07/19 12:49:45;;;;;;;15.20;4.35;;;32.50;72.20;;;;;;4851818;29;20081;-74
2021/07/19 12:52:19;;;;;;;9.55;3.65;;;32.50;70.20;;;;;;4854950;29;20048;-75